Nagoya, Japan

1:00 PM JST on December 04, 2016 (GMT +0900)
Dorfstraße | | Change Station

Elev 209 ft 35.16 °N, 136.99 °E | Updated 5 minutes ago

Mostly Cloudy
Mostly Cloudy
66.6 °F
Feels Like 66.6 °F
N
0.0
Wind Variable Wind from North
Gusts 0.6 mph

Today
High -- | Low -- °F
--% Chance of Precip.
Yesterday
High -- | Low -- °F
Precip. -- in
Pressure 30.09 in
Visibility 6.2 miles
Clouds Few 3000 ft
Mostly Cloudy 4000 ft
Mostly Cloudy 23000 ft
Dew Point 52 °F
Humidity 59%
Rainfall Not available.
Snow Depth Not available.
6:44 AM 4:39 PM
Waxing Crescent, 19% visible
SPECI RJNG 040336Z 03003KT 9999 FEW030 BKN040 BKN230 15/06 Q1019 RMK 1CU030 5SC040 A3010
Pressure 30.09 in
Visibility 6.2 miles
Clouds Few 3000 ft
Mostly Cloudy 4000 ft
Mostly Cloudy 23000 ft
Dew Point 52 °F
Humidity 59%
Rainfall Not available.
Snow Depth Not available.
6:44 AM 4:39 PM
Waxing Crescent, 19% visible
SPECI RJNG 040336Z 03003KT 9999 FEW030 BKN040 BKN230 15/06 Q1019 RMK 1CU030 5SC040 A3010

10-Day Weather Forecast

No radar image for this location.
×

Almanac

Astronomy

Dec. 04, 2016 Rise Set
Actual Time
Civil Twilight
Nautical Twilight
Astronomical Twilight
Moon
Length of Visible Light
Length of Day
Tomorrow will be .
, % of the Moon is Illuminated

Today's Extremes

Country Highs Country Lows

Community

WunderPhotos

Upload Photos

1,955,573 photos uploaded!

WunderBlog® & News

Nearby

Air Quality

  Air Quality AQ Index Pollutant
Not available.

Snow Depth

Station Depth Elevation

Earthquake Activity

City Distance Mag. Time & Date
Minimum magnitude displayed is 2.5.

Coastal Water Temperatures

Place Temperature

Stations

Nearby Weather Stations

Station Location Temp. Windchill Dew Point Humidity Wind Precip. Elev Updated Type